sensor_id;sensor_type;location;lat;lon;timestamp;P1;durP1;ratioP1;P2;durP2;ratioP2
50569;SDS011;36525;49.398;7.614;2023-04-24T00:02:24;6.05;;;0.93;;
50569;SDS011;36525;49.398;7.614;2023-04-24T00:05:01;5.25;;;0.70;;
50569;SDS011;36525;49.398;7.614;2023-04-24T00:07:28;4.28;;;1.13;;
50569;SDS011;36525;49.398;7.614;2023-04-24T00:12:45;3.97;;;0.90;;
50569;SDS011;36525;49.398;7.614;2023-04-24T00:15:13;6.63;;;1.27;;
50569;SDS011;36525;49.398;7.614;2023-04-24T00:17:46;3.00;;;0.77;;
50569;SDS011;36525;49.398;7.614;2023-04-24T00:20:18;3.17;;;0.60;;
50569;SDS011;36525;49.398;7.614;2023-04-24T00:22:45;5.53;;;0.93;;
50569;SDS011;36525;49.398;7.614;2023-04-24T00:25:12;4.80;;;0.88;;
50569;SDS011;36525;49.398;7.614;2023-04-24T00:27:43;3.55;;;0.80;;
50569;SDS011;36525;49.398;7.614;2023-04-24T00:30:16;6.20;;;0.98;;
50569;SDS011;36525;49.398;7.614;2023-04-24T00:36:07;5.20;;;0.98;;
50569;SDS011;36525;49.398;7.614;2023-04-24T00:38:34;5.82;;;1.00;;
50569;SDS011;36525;49.398;7.614;2023-04-24T00:43:56;3.55;;;0.70;;
50569;SDS011;36525;49.398;7.614;2023-04-24T00:49:54;3.65;;;0.80;;
50569;SDS011;36525;49.398;7.614;2023-04-24T00:52:30;4.28;;;0.80;;
50569;SDS011;36525;49.398;7.614;2023-04-24T00:54:58;3.70;;;0.60;;
50569;SDS011;36525;49.398;7.614;2023-04-24T01:01:43;3.60;;;0.73;;
50569;SDS011;36525;49.398;7.614;2023-04-24T01:04:22;3.55;;;0.73;;
50569;SDS011;36525;49.398;7.614;2023-04-24T01:07:08;8.15;;;1.20;;
50569;SDS011;36525;49.398;7.614;2023-04-24T01:09:45;3.63;;;0.90;;
50569;SDS011;36525;49.398;7.614;2023-04-24T01:12:15;6.00;;;1.00;;
50569;SDS011;36525;49.398;7.614;2023-04-24T01:18:08;4.35;;;0.90;;
50569;SDS011;36525;49.398;7.614;2023-04-24T01:20:39;3.97;;;0.77;;
50569;SDS011;36525;49.398;7.614;2023-04-24T01:23:31;4.18;;;0.60;;
50569;SDS011;36525;49.398;7.614;2023-04-24T01:26:05;4.43;;;0.68;;
50569;SDS011;36525;49.398;7.614;2023-04-24T01:28:38;1.30;;;0.50;;
50569;SDS011;36525;49.398;7.614;2023-04-24T01:31:06;2.60;;;0.60;;
50569;SDS011;36525;49.398;7.614;2023-04-24T01:33:33;2.22;;;0.60;;
50569;SDS011;36525;49.398;7.614;2023-04-24T01:36:00;2.55;;;0.80;;
50569;SDS011;36525;49.398;7.614;2023-04-24T01:39:37;1.05;;;0.70;;
50569;SDS011;36525;49.398;7.614;2023-04-24T01:42:07;1.98;;;0.82;;
50569;SDS011;36525;49.398;7.614;2023-04-24T01:44:40;1.73;;;0.80;;
50569;SDS011;36525;49.398;7.614;2023-04-24T01:47:08;5.47;;;2.00;;
50569;SDS011;36525;49.398;7.614;2023-04-24T01:49:44;4.22;;;1.70;;
50569;SDS011;36525;49.398;7.614;2023-04-24T01:52:32;2.70;;;1.65;;
50569;SDS011;36525;49.398;7.614;2023-04-24T01:57:57;5.47;;;2.22;;
50569;SDS011;36525;49.398;7.614;2023-04-24T02:00:38;4.07;;;1.92;;
50569;SDS011;36525;49.398;7.614;2023-04-24T02:03:05;3.65;;;1.80;;
50569;SDS011;36525;49.398;7.614;2023-04-24T02:08:41;4.95;;;2.22;;
50569;SDS011;36525;49.398;7.614;2023-04-24T02:11:14;3.72;;;2.33;;
50569;SDS011;36525;49.398;7.614;2023-04-24T02:16:55;3.58;;;2.70;;
50569;SDS011;36525;49.398;7.614;2023-04-24T02:19:26;3.63;;;2.33;;
50569;SDS011;36525;49.398;7.614;2023-04-24T02:22:02;5.22;;;2.70;;
50569;SDS011;36525;49.398;7.614;2023-04-24T02:24:44;4.47;;;2.55;;
50569;SDS011;36525;49.398;7.614;2023-04-24T02:28:33;4.95;;;3.00;;
50569;SDS011;36525;49.398;7.614;2023-04-24T02:31:03;5.28;;;3.47;;
50569;SDS011;36525;49.398;7.614;2023-04-24T02:42:58;6.80;;;3.63;;
50569;SDS011;36525;49.398;7.614;2023-04-24T02:45:25;4.45;;;3.00;;
50569;SDS011;36525;49.398;7.614;2023-04-24T02:47:59;6.88;;;3.65;;
50569;SDS011;36525;49.398;7.614;2023-04-24T02:53:32;5.45;;;3.70;;
50569;SDS011;36525;49.398;7.614;2023-04-24T03:02:55;4.78;;;3.28;;
50569;SDS011;36525;49.398;7.614;2023-04-24T03:05:22;6.00;;;4.00;;
50569;SDS011;36525;49.398;7.614;2023-04-24T03:08:45;5.43;;;3.60;;
50569;SDS011;36525;49.398;7.614;2023-04-24T03:11:12;9.82;;;3.70;;
50569;SDS011;36525;49.398;7.614;2023-04-24T03:13:43;6.00;;;3.30;;
50569;SDS011;36525;49.398;7.614;2023-04-24T03:16:10;5.05;;;3.65;;
50569;SDS011;36525;49.398;7.614;2023-04-24T03:18:53;7.65;;;4.07;;
50569;SDS011;36525;49.398;7.614;2023-04-24T03:26:01;7.43;;;4.80;;
50569;SDS011;36525;49.398;7.614;2023-04-24T03:28:31;7.95;;;4.63;;
50569;SDS011;36525;49.398;7.614;2023-04-24T03:31:11;8.43;;;4.93;;
50569;SDS011;36525;49.398;7.614;2023-04-24T03:33:50;7.90;;;5.45;;
50569;SDS011;36525;49.398;7.614;2023-04-24T03:36:26;7.30;;;4.80;;
50569;SDS011;36525;49.398;7.614;2023-04-24T03:39:03;9.77;;;5.50;;
50569;SDS011;36525;49.398;7.614;2023-04-24T03:48:01;6.93;;;4.90;;
50569;SDS011;36525;49.398;7.614;2023-04-24T03:50:37;7.60;;;5.75;;
50569;SDS011;36525;49.398;7.614;2023-04-24T03:56:04;7.70;;;5.13;;
50569;SDS011;36525;49.398;7.614;2023-04-24T03:58:49;15.02;;;5.50;;
50569;SDS011;36525;49.398;7.614;2023-04-24T04:01:44;10.23;;;5.97;;
50569;SDS011;36525;49.398;7.614;2023-04-24T04:07:30;7.25;;;5.72;;
50569;SDS011;36525;49.398;7.614;2023-04-24T04:10:00;9.27;;;5.72;;
50569;SDS011;36525;49.398;7.614;2023-04-24T04:15:33;7.28;;;5.93;;
50569;SDS011;36525;49.398;7.614;2023-04-24T04:18:00;8.13;;;6.45;;
50569;SDS011;36525;49.398;7.614;2023-04-24T04:23:35;10.70;;;6.97;;
50569;SDS011;36525;49.398;7.614;2023-04-24T04:26:06;12.82;;;8.05;;
50569;SDS011;36525;49.398;7.614;2023-04-24T04:28:36;12.10;;;8.75;;
50569;SDS011;36525;49.398;7.614;2023-04-24T04:31:14;11.05;;;6.72;;
50569;SDS011;36525;49.398;7.614;2023-04-24T04:34:05;13.60;;;9.32;;
50569;SDS011;36525;49.398;7.614;2023-04-24T04:36:37;9.77;;;7.20;;
50569;SDS011;36525;49.398;7.614;2023-04-24T04:39:09;9.90;;;7.88;;
50569;SDS011;36525;49.398;7.614;2023-04-24T04:41:36;11.15;;;7.03;;
50569;SDS011;36525;49.398;7.614;2023-04-24T04:44:18;9.65;;;7.60;;
50569;SDS011;36525;49.398;7.614;2023-04-24T04:49:40;11.40;;;8.02;;
50569;SDS011;36525;49.398;7.614;2023-04-24T04:52:07;9.23;;;7.63;;
50569;SDS011;36525;49.398;7.614;2023-04-24T04:54:35;9.95;;;7.60;;
50569;SDS011;36525;49.398;7.614;2023-04-24T04:57:25;10.73;;;7.68;;
50569;SDS011;36525;49.398;7.614;2023-04-24T05:00:02;10.55;;;7.57;;
50569;SDS011;36525;49.398;7.614;2023-04-24T05:02:47;9.65;;;7.20;;
50569;SDS011;36525;49.398;7.614;2023-04-24T05:05:14;11.18;;;7.13;;
50569;SDS011;36525;49.398;7.614;2023-04-24T05:07:54;12.07;;;8.60;;
50569;SDS011;36525;49.398;7.614;2023-04-24T05:10:21;12.43;;;7.63;;
50569;SDS011;36525;49.398;7.614;2023-04-24T05:13:29;11.02;;;8.50;;
50569;SDS011;36525;49.398;7.614;2023-04-24T05:19:12;12.93;;;8.88;;
50569;SDS011;36525;49.398;7.614;2023-04-24T05:24:58;9.77;;;6.90;;
50569;SDS011;36525;49.398;7.614;2023-04-24T05:27:43;11.85;;;8.38;;
50569;SDS011;36525;49.398;7.614;2023-04-24T05:30:30;11.80;;;8.00;;
50569;SDS011;36525;49.398;7.614;2023-04-24T05:46:22;8.85;;;6.70;;
50569;SDS011;36525;49.398;7.614;2023-04-24T05:48:56;10.93;;;7.20;;
50569;SDS011;36525;49.398;7.614;2023-04-24T05:54:36;11.13;;;6.22;;
50569;SDS011;36525;49.398;7.614;2023-04-24T05:57:27;7.88;;;5.10;;
50569;SDS011;36525;49.398;7.614;2023-04-24T06:00:00;10.38;;;5.82;;
50569;SDS011;36525;49.398;7.614;2023-04-24T06:12:56;9.27;;;4.90;;
50569;SDS011;36525;49.398;7.614;2023-04-24T06:15:54;6.45;;;4.20;;
50569;SDS011;36525;49.398;7.614;2023-04-24T06:18:34;5.30;;;4.22;;
50569;SDS011;36525;49.398;7.614;2023-04-24T06:21:04;7.30;;;4.50;;
50569;SDS011;36525;49.398;7.614;2023-04-24T06:32:03;6.43;;;3.88;;
50569;SDS011;36525;49.398;7.614;2023-04-24T06:34:30;6.60;;;3.58;;
50569;SDS011;36525;49.398;7.614;2023-04-24T06:40:52;7.43;;;4.38;;
50569;SDS011;36525;49.398;7.614;2023-04-24T06:43:36;6.40;;;4.20;;
50569;SDS011;36525;49.398;7.614;2023-04-24T06:49:32;7.25;;;3.72;;
50569;SDS011;36525;49.398;7.614;2023-04-24T06:52:04;7.30;;;3.78;;
50569;SDS011;36525;49.398;7.614;2023-04-24T06:54:32;6.63;;;3.17;;
50569;SDS011;36525;49.398;7.614;2023-04-24T06:57:14;5.83;;;3.20;;
50569;SDS011;36525;49.398;7.614;2023-04-24T06:59:57;5.90;;;2.63;;
50569;SDS011;36525;49.398;7.614;2023-04-24T07:02:56;5.05;;;2.63;;
50569;SDS011;36525;49.398;7.614;2023-04-24T07:05:29;5.10;;;2.25;;
50569;SDS011;36525;49.398;7.614;2023-04-24T07:08:09;5.15;;;2.10;;
50569;SDS011;36525;49.398;7.614;2023-04-24T07:13:46;5.55;;;2.33;;
50569;SDS011;36525;49.398;7.614;2023-04-24T07:16:31;5.10;;;2.50;;
50569;SDS011;36525;49.398;7.614;2023-04-24T07:18:59;4.20;;;2.53;;
50569;SDS011;36525;49.398;7.614;2023-04-24T07:22:52;4.40;;;2.78;;
50569;SDS011;36525;49.398;7.614;2023-04-24T07:28:32;4.30;;;2.38;;
50569;SDS011;36525;49.398;7.614;2023-04-24T07:31:00;6.45;;;3.00;;
50569;SDS011;36525;49.398;7.614;2023-04-24T07:33:52;5.25;;;2.92;;
50569;SDS011;36525;49.398;7.614;2023-04-24T07:36:19;7.90;;;3.03;;
50569;SDS011;36525;49.398;7.614;2023-04-24T07:38:49;7.85;;;2.75;;
50569;SDS011;36525;49.398;7.614;2023-04-24T07:41:19;3.53;;;2.50;;
50569;SDS011;36525;49.398;7.614;2023-04-24T07:46:58;5.75;;;2.50;;
50569;SDS011;36525;49.398;7.614;2023-04-24T07:49:44;4.72;;;2.58;;
50569;SDS011;36525;49.398;7.614;2023-04-24T07:52:18;6.32;;;2.78;;
50569;SDS011;36525;49.398;7.614;2023-04-24T07:54:45;8.45;;;2.92;;
50569;SDS011;36525;49.398;7.614;2023-04-24T08:00:12;4.30;;;2.58;;
50569;SDS011;36525;49.398;7.614;2023-04-24T08:03:22;5.35;;;2.80;;
50569;SDS011;36525;49.398;7.614;2023-04-24T08:05:58;8.57;;;3.42;;
50569;SDS011;36525;49.398;7.614;2023-04-24T08:08:34;4.60;;;2.55;;
50569;SDS011;36525;49.398;7.614;2023-04-24T08:11:12;6.35;;;3.13;;
50569;SDS011;36525;49.398;7.614;2023-04-24T08:14:13;6.00;;;2.72;;
50569;SDS011;36525;49.398;7.614;2023-04-24T08:20:03;7.22;;;3.20;;
50569;SDS011;36525;49.398;7.614;2023-04-24T08:26:55;6.13;;;3.22;;
50569;SDS011;36525;49.398;7.614;2023-04-24T08:29:48;6.05;;;3.95;;
50569;SDS011;36525;49.398;7.614;2023-04-24T08:32:43;4.78;;;2.88;;
50569;SDS011;36525;49.398;7.614;2023-04-24T08:35:32;7.10;;;3.65;;
50569;SDS011;36525;49.398;7.614;2023-04-24T08:41:02;6.38;;;3.58;;
50569;SDS011;36525;49.398;7.614;2023-04-24T08:43:36;5.93;;;3.10;;
50569;SDS011;36525;49.398;7.614;2023-04-24T08:46:43;6.75;;;3.95;;
50569;SDS011;36525;49.398;7.614;2023-04-24T08:49:25;9.38;;;4.68;;
50569;SDS011;36525;49.398;7.614;2023-04-24T08:52:07;6.82;;;4.30;;
50569;SDS011;36525;49.398;7.614;2023-04-24T08:54:41;9.45;;;5.35;;
50569;SDS011;36525;49.398;7.614;2023-04-24T08:57:26;13.15;;;4.88;;
50569;SDS011;36525;49.398;7.614;2023-04-24T09:00:00;10.77;;;5.53;;
50569;SDS011;36525;49.398;7.614;2023-04-24T09:05:36;8.00;;;5.97;;
50569;SDS011;36525;49.398;7.614;2023-04-24T09:12:10;7.53;;;6.50;;
50569;SDS011;36525;49.398;7.614;2023-04-24T09:14:38;12.23;;;6.30;;
50569;SDS011;36525;49.398;7.614;2023-04-24T09:17:09;12.15;;;6.45;;
50569;SDS011;36525;49.398;7.614;2023-04-24T09:19:36;11.10;;;6.15;;
50569;SDS011;36525;49.398;7.614;2023-04-24T09:22:07;8.90;;;6.50;;
50569;SDS011;36525;49.398;7.614;2023-04-24T09:24:34;9.13;;;5.82;;
50569;SDS011;36525;49.398;7.614;2023-04-24T09:27:02;9.10;;;6.07;;
50569;SDS011;36525;49.398;7.614;2023-04-24T09:29:30;8.85;;;5.13;;
50569;SDS011;36525;49.398;7.614;2023-04-24T09:31:59;8.02;;;5.10;;
50569;SDS011;36525;49.398;7.614;2023-04-24T09:34:44;8.27;;;5.68;;
50569;SDS011;36525;49.398;7.614;2023-04-24T09:37:27;9.98;;;6.22;;
50569;SDS011;36525;49.398;7.614;2023-04-24T09:40:09;9.18;;;5.55;;
50569;SDS011;36525;49.398;7.614;2023-04-24T09:42:46;10.27;;;6.53;;
50569;SDS011;36525;49.398;7.614;2023-04-24T09:45:20;10.05;;;6.47;;
50569;SDS011;36525;49.398;7.614;2023-04-24T09:47:51;10.80;;;6.22;;
50569;SDS011;36525;49.398;7.614;2023-04-24T09:50:22;8.30;;;5.82;;
50569;SDS011;36525;49.398;7.614;2023-04-24T09:52:56;12.30;;;8.75;;
50569;SDS011;36525;49.398;7.614;2023-04-24T09:55:26;14.15;;;7.65;;
50569;SDS011;36525;49.398;7.614;2023-04-24T09:57:57;14.60;;;7.80;;
50569;SDS011;36525;49.398;7.614;2023-04-24T10:00:28;10.50;;;6.28;;
50569;SDS011;36525;49.398;7.614;2023-04-24T10:02:58;8.23;;;6.13;;
50569;SDS011;36525;49.398;7.614;2023-04-24T10:05:30;10.80;;;6.03;;
50569;SDS011;36525;49.398;7.614;2023-04-24T10:08:00;11.60;;;6.78;;
50569;SDS011;36525;49.398;7.614;2023-04-24T10:10:31;11.40;;;6.93;;
50569;SDS011;36525;49.398;7.614;2023-04-24T10:13:01;10.80;;;7.32;;
50569;SDS011;36525;49.398;7.614;2023-04-24T10:15:29;11.27;;;8.10;;
50569;SDS011;36525;49.398;7.614;2023-04-24T10:17:57;11.38;;;7.40;;
50569;SDS011;36525;49.398;7.614;2023-04-24T10:20:27;11.35;;;6.55;;
50569;SDS011;36525;49.398;7.614;2023-04-24T10:22:57;11.88;;;7.13;;
50569;SDS011;36525;49.398;7.614;2023-04-24T10:25:32;10.30;;;6.35;;
50569;SDS011;36525;49.398;7.614;2023-04-24T10:38:22;10.02;;;6.00;;
50569;SDS011;36525;49.398;7.614;2023-04-24T10:44:18;12.57;;;6.13;;
50569;SDS011;36525;49.398;7.614;2023-04-24T10:47:17;9.65;;;5.72;;
50569;SDS011;36525;49.398;7.614;2023-04-24T10:50:13;7.88;;;5.75;;
50569;SDS011;36525;49.398;7.614;2023-04-24T10:59:34;8.95;;;5.47;;
50569;SDS011;36525;49.398;7.614;2023-04-24T11:02:04;12.55;;;6.32;;
50569;SDS011;36525;49.398;7.614;2023-04-24T11:04:35;10.55;;;6.18;;
50569;SDS011;36525;49.398;7.614;2023-04-24T11:07:02;11.02;;;6.32;;
50569;SDS011;36525;49.398;7.614;2023-04-24T11:09:31;7.85;;;5.45;;
50569;SDS011;36525;49.398;7.614;2023-04-24T11:12:05;9.57;;;5.97;;
50569;SDS011;36525;49.398;7.614;2023-04-24T11:17:28;7.95;;;5.80;;
50569;SDS011;36525;49.398;7.614;2023-04-24T11:20:09;12.50;;;5.90;;
50569;SDS011;36525;49.398;7.614;2023-04-24T11:22:54;7.47;;;4.88;;
50569;SDS011;36525;49.398;7.614;2023-04-24T11:25:22;8.35;;;5.75;;
50569;SDS011;36525;49.398;7.614;2023-04-24T11:27:49;10.57;;;6.18;;
50569;SDS011;36525;49.398;7.614;2023-04-24T11:30:17;8.48;;;4.65;;
50569;SDS011;36525;49.398;7.614;2023-04-24T11:32:52;7.93;;;4.82;;
50569;SDS011;36525;49.398;7.614;2023-04-24T11:35:20;8.55;;;4.78;;
50569;SDS011;36525;49.398;7.614;2023-04-24T11:37:54;8.77;;;5.30;;
50569;SDS011;36525;49.398;7.614;2023-04-24T11:40:25;11.00;;;5.07;;
50569;SDS011;36525;49.398;7.614;2023-04-24T11:43:00;9.05;;;4.68;;
50569;SDS011;36525;49.398;7.614;2023-04-24T11:45:28;7.82;;;4.68;;
50569;SDS011;36525;49.398;7.614;2023-04-24T11:47:57;8.98;;;5.30;;
50569;SDS011;36525;49.398;7.614;2023-04-24T11:50:26;9.55;;;5.28;;
50569;SDS011;36525;49.398;7.614;2023-04-24T11:52:55;9.27;;;5.00;;
50569;SDS011;36525;49.398;7.614;2023-04-24T11:57:54;8.23;;;4.80;;
50569;SDS011;36525;49.398;7.614;2023-04-24T12:00:30;9.43;;;5.07;;
50569;SDS011;36525;49.398;7.614;2023-04-24T12:03:10;8.40;;;4.47;;
50569;SDS011;36525;49.398;7.614;2023-04-24T12:05:39;8.15;;;5.18;;
50569;SDS011;36525;49.398;7.614;2023-04-24T12:08:07;8.95;;;4.88;;
50569;SDS011;36525;49.398;7.614;2023-04-24T12:10:34;12.60;;;5.32;;
50569;SDS011;36525;49.398;7.614;2023-04-24T12:13:02;8.80;;;5.15;;
50569;SDS011;36525;49.398;7.614;2023-04-24T12:15:30;8.88;;;4.97;;
50569;SDS011;36525;49.398;7.614;2023-04-24T12:17:58;8.85;;;4.80;;
50569;SDS011;36525;49.398;7.614;2023-04-24T12:20:27;8.07;;;4.03;;
50569;SDS011;36525;49.398;7.614;2023-04-24T12:22:57;12.38;;;4.93;;
50569;SDS011;36525;49.398;7.614;2023-04-24T12:25:30;11.70;;;4.30;;
50569;SDS011;36525;49.398;7.614;2023-04-24T12:30:50;6.47;;;4.47;;
50569;SDS011;36525;49.398;7.614;2023-04-24T12:33:19;9.00;;;5.47;;
50569;SDS011;36525;49.398;7.614;2023-04-24T12:35:48;9.90;;;5.25;;
50569;SDS011;36525;49.398;7.614;2023-04-24T12:38:23;7.75;;;4.85;;
50569;SDS011;36525;49.398;7.614;2023-04-24T12:41:03;8.25;;;4.30;;
50569;SDS011;36525;49.398;7.614;2023-04-24T12:43:35;6.50;;;4.37;;
50569;SDS011;36525;49.398;7.614;2023-04-24T12:46:04;8.60;;;4.47;;
50569;SDS011;36525;49.398;7.614;2023-04-24T12:48:32;8.77;;;4.65;;
50569;SDS011;36525;49.398;7.614;2023-04-24T12:50:59;7.88;;;4.60;;
50569;SDS011;36525;49.398;7.614;2023-04-24T12:53:30;8.98;;;4.72;;
50569;SDS011;36525;49.398;7.614;2023-04-24T12:55:57;8.60;;;4.68;;
50569;SDS011;36525;49.398;7.614;2023-04-24T12:58:24;9.13;;;4.60;;
50569;SDS011;36525;49.398;7.614;2023-04-24T13:00:52;7.75;;;4.95;;
50569;SDS011;36525;49.398;7.614;2023-04-24T13:03:19;10.13;;;4.57;;
50569;SDS011;36525;49.398;7.614;2023-04-24T13:05:47;9.10;;;5.15;;
50569;SDS011;36525;49.398;7.614;2023-04-24T13:08:17;7.10;;;4.78;;
50569;SDS011;36525;49.398;7.614;2023-04-24T13:10:46;9.57;;;5.00;;
50569;SDS011;36525;49.398;7.614;2023-04-24T13:13:14;9.73;;;5.10;;
50569;SDS011;36525;49.398;7.614;2023-04-24T13:15:41;9.88;;;5.07;;
50569;SDS011;36525;49.398;7.614;2023-04-24T13:18:08;8.52;;;4.38;;
50569;SDS011;36525;49.398;7.614;2023-04-24T13:20:36;7.57;;;4.63;;
50569;SDS011;36525;49.398;7.614;2023-04-24T13:23:03;9.73;;;5.50;;
50569;SDS011;36525;49.398;7.614;2023-04-24T13:25:34;12.20;;;4.95;;
50569;SDS011;36525;49.398;7.614;2023-04-24T13:28:03;8.30;;;5.05;;
50569;SDS011;36525;49.398;7.614;2023-04-24T13:30:31;10.57;;;5.80;;
50569;SDS011;36525;49.398;7.614;2023-04-24T13:32:58;8.35;;;4.47;;
50569;SDS011;36525;49.398;7.614;2023-04-24T13:35:25;6.85;;;3.53;;
50569;SDS011;36525;49.398;7.614;2023-04-24T13:37:53;8.50;;;4.10;;
50569;SDS011;36525;49.398;7.614;2023-04-24T13:40:24;6.15;;;3.80;;
50569;SDS011;36525;49.398;7.614;2023-04-24T13:42:54;4.00;;;3.00;;
50569;SDS011;36525;49.398;7.614;2023-04-24T13:45:21;5.00;;;3.10;;
50569;SDS011;36525;49.398;7.614;2023-04-24T13:47:51;4.95;;;3.03;;
50569;SDS011;36525;49.398;7.614;2023-04-24T13:50:20;6.97;;;4.05;;
50569;SDS011;36525;49.398;7.614;2023-04-24T13:52:47;8.65;;;4.00;;
50569;SDS011;36525;49.398;7.614;2023-04-24T13:55:15;7.53;;;4.07;;
50569;SDS011;36525;49.398;7.614;2023-04-24T13:57:43;7.82;;;4.25;;
50569;SDS011;36525;49.398;7.614;2023-04-24T14:00:10;8.30;;;4.63;;
50569;SDS011;36525;49.398;7.614;2023-04-24T14:02:38;8.18;;;5.15;;
50569;SDS011;36525;49.398;7.614;2023-04-24T14:05:07;9.20;;;5.22;;
50569;SDS011;36525;49.398;7.614;2023-04-24T14:07:35;7.85;;;4.90;;
50569;SDS011;36525;49.398;7.614;2023-04-24T14:10:03;7.53;;;4.88;;
50569;SDS011;36525;49.398;7.614;2023-04-24T14:12:31;11.75;;;6.25;;
50569;SDS011;36525;49.398;7.614;2023-04-24T14:15:01;11.15;;;6.05;;
50569;SDS011;36525;49.398;7.614;2023-04-24T14:17:31;7.93;;;5.55;;
50569;SDS011;36525;49.398;7.614;2023-04-24T14:19:58;9.25;;;6.30;;
50569;SDS011;36525;49.398;7.614;2023-04-24T14:22:26;11.68;;;6.50;;
50569;SDS011;36525;49.398;7.614;2023-04-24T14:24:54;10.93;;;6.15;;
50569;SDS011;36525;49.398;7.614;2023-04-24T14:27:21;10.93;;;5.35;;
50569;SDS011;36525;49.398;7.614;2023-04-24T14:29:48;5.50;;;3.63;;
50569;SDS011;36525;49.398;7.614;2023-04-24T14:32:15;4.90;;;2.83;;
50569;SDS011;36525;49.398;7.614;2023-04-24T14:34:43;6.03;;;2.67;;
50569;SDS011;36525;49.398;7.614;2023-04-24T14:37:09;3.85;;;1.88;;
50569;SDS011;36525;49.398;7.614;2023-04-24T14:39:36;3.88;;;2.38;;
50569;SDS011;36525;49.398;7.614;2023-04-24T14:42:03;4.30;;;2.45;;
50569;SDS011;36525;49.398;7.614;2023-04-24T14:44:31;7.10;;;2.50;;
50569;SDS011;36525;49.398;7.614;2023-04-24T14:46:58;3.92;;;2.63;;
50569;SDS011;36525;49.398;7.614;2023-04-24T14:49:26;4.32;;;2.13;;
50569;SDS011;36525;49.398;7.614;2023-04-24T14:51:52;6.47;;;2.70;;
50569;SDS011;36525;49.398;7.614;2023-04-24T14:54:20;3.63;;;2.22;;
50569;SDS011;36525;49.398;7.614;2023-04-24T14:56:51;5.57;;;3.38;;
50569;SDS011;36525;49.398;7.614;2023-04-24T14:59:18;4.57;;;3.08;;
50569;SDS011;36525;49.398;7.614;2023-04-24T15:01:47;4.30;;;2.45;;
50569;SDS011;36525;49.398;7.614;2023-04-24T15:04:14;4.43;;;3.20;;
50569;SDS011;36525;49.398;7.614;2023-04-24T15:06:41;5.22;;;2.88;;
50569;SDS011;36525;49.398;7.614;2023-04-24T15:09:09;6.30;;;3.10;;
50569;SDS011;36525;49.398;7.614;2023-04-24T15:11:36;5.70;;;3.47;;
50569;SDS011;36525;49.398;7.614;2023-04-24T15:14:03;3.97;;;2.83;;
50569;SDS011;36525;49.398;7.614;2023-04-24T15:16:31;5.80;;;3.22;;
50569;SDS011;36525;49.398;7.614;2023-04-24T15:18:58;6.35;;;4.03;;
50569;SDS011;36525;49.398;7.614;2023-04-24T15:21:25;4.95;;;2.67;;
50569;SDS011;36525;49.398;7.614;2023-04-24T15:23:52;8.05;;;3.58;;
50569;SDS011;36525;49.398;7.614;2023-04-24T15:26:21;5.85;;;3.30;;
50569;SDS011;36525;49.398;7.614;2023-04-24T15:28:49;6.45;;;3.60;;
50569;SDS011;36525;49.398;7.614;2023-04-24T15:31:18;4.30;;;2.75;;
50569;SDS011;36525;49.398;7.614;2023-04-24T15:33:45;4.50;;;2.58;;
50569;SDS011;36525;49.398;7.614;2023-04-24T15:36:12;3.35;;;2.25;;
50569;SDS011;36525;49.398;7.614;2023-04-24T15:38:39;8.02;;;3.65;;
50569;SDS011;36525;49.398;7.614;2023-04-24T15:41:07;4.32;;;3.03;;
50569;SDS011;36525;49.398;7.614;2023-04-24T15:43:33;4.38;;;2.78;;
50569;SDS011;36525;49.398;7.614;2023-04-24T15:46:01;5.97;;;3.05;;
50569;SDS011;36525;49.398;7.614;2023-04-24T15:48:29;6.13;;;3.22;;
50569;SDS011;36525;49.398;7.614;2023-04-24T15:50:57;5.13;;;3.25;;
50569;SDS011;36525;49.398;7.614;2023-04-24T15:53:25;4.57;;;2.78;;
50569;SDS011;36525;49.398;7.614;2023-04-24T15:55:53;7.45;;;2.58;;
50569;SDS011;36525;49.398;7.614;2023-04-24T15:58:22;6.22;;;2.35;;
50569;SDS011;36525;49.398;7.614;2023-04-24T16:00:50;5.15;;;2.30;;
50569;SDS011;36525;49.398;7.614;2023-04-24T16:03:19;4.95;;;3.15;;
50569;SDS011;36525;49.398;7.614;2023-04-24T16:05:48;5.60;;;3.03;;
50569;SDS011;36525;49.398;7.614;2023-04-24T16:08:15;5.18;;;2.75;;
50569;SDS011;36525;49.398;7.614;2023-04-24T16:10:44;3.72;;;2.50;;
50569;SDS011;36525;49.398;7.614;2023-04-24T16:13:12;6.07;;;2.85;;
50569;SDS011;36525;49.398;7.614;2023-04-24T16:15:41;4.05;;;2.15;;
50569;SDS011;36525;49.398;7.614;2023-04-24T16:18:08;4.82;;;2.63;;
50569;SDS011;36525;49.398;7.614;2023-04-24T16:20:35;7.70;;;2.08;;
50569;SDS011;36525;49.398;7.614;2023-04-24T16:23:02;6.85;;;2.90;;
50569;SDS011;36525;49.398;7.614;2023-04-24T16:25:30;4.50;;;2.60;;
50569;SDS011;36525;49.398;7.614;2023-04-24T16:27:58;4.03;;;2.38;;
50569;SDS011;36525;49.398;7.614;2023-04-24T16:30:26;4.57;;;2.35;;
50569;SDS011;36525;49.398;7.614;2023-04-24T16:32:55;4.85;;;2.35;;
50569;SDS011;36525;49.398;7.614;2023-04-24T16:35:22;5.53;;;2.17;;
50569;SDS011;36525;49.398;7.614;2023-04-24T16:37:49;4.18;;;2.20;;
50569;SDS011;36525;49.398;7.614;2023-04-24T16:40:17;5.15;;;2.13;;
50569;SDS011;36525;49.398;7.614;2023-04-24T16:42:44;4.15;;;2.53;;
50569;SDS011;36525;49.398;7.614;2023-04-24T16:45:11;4.88;;;2.85;;
50569;SDS011;36525;49.398;7.614;2023-04-24T16:47:38;4.63;;;2.85;;
50569;SDS011;36525;49.398;7.614;2023-04-24T16:50:08;6.07;;;3.08;;
50569;SDS011;36525;49.398;7.614;2023-04-24T16:52:37;5.60;;;2.85;;
50569;SDS011;36525;49.398;7.614;2023-04-24T16:55:04;5.38;;;2.70;;
50569;SDS011;36525;49.398;7.614;2023-04-24T16:57:32;9.02;;;3.25;;
50569;SDS011;36525;49.398;7.614;2023-04-24T16:59:59;6.97;;;3.20;;
50569;SDS011;36525;49.398;7.614;2023-04-24T17:02:27;6.13;;;2.88;;
50569;SDS011;36525;49.398;7.614;2023-04-24T17:04:54;7.70;;;3.05;;
50569;SDS011;36525;49.398;7.614;2023-04-24T17:07:22;7.35;;;3.42;;
50569;SDS011;36525;49.398;7.614;2023-04-24T17:09:49;6.05;;;3.08;;
50569;SDS011;36525;49.398;7.614;2023-04-24T17:12:16;8.48;;;4.03;;
50569;SDS011;36525;49.398;7.614;2023-04-24T17:14:43;6.43;;;3.13;;
50569;SDS011;36525;49.398;7.614;2023-04-24T17:17:11;6.50;;;3.13;;
50569;SDS011;36525;49.398;7.614;2023-04-24T17:19:38;5.72;;;3.00;;
50569;SDS011;36525;49.398;7.614;2023-04-24T17:22:05;7.95;;;3.90;;
50569;SDS011;36525;49.398;7.614;2023-04-24T17:24:32;7.05;;;4.10;;
50569;SDS011;36525;49.398;7.614;2023-04-24T17:26:59;7.07;;;4.20;;
50569;SDS011;36525;49.398;7.614;2023-04-24T17:29:37;8.90;;;4.30;;
50569;SDS011;36525;49.398;7.614;2023-04-24T17:32:04;7.32;;;3.55;;
50569;SDS011;36525;49.398;7.614;2023-04-24T17:34:31;7.45;;;3.53;;
50569;SDS011;36525;49.398;7.614;2023-04-24T17:36:58;6.28;;;3.17;;
50569;SDS011;36525;49.398;7.614;2023-04-24T17:39:25;5.85;;;3.25;;
50569;SDS011;36525;49.398;7.614;2023-04-24T17:41:53;6.57;;;3.55;;
50569;SDS011;36525;49.398;7.614;2023-04-24T17:44:22;6.13;;;3.75;;
50569;SDS011;36525;49.398;7.614;2023-04-24T17:46:49;6.90;;;3.55;;
50569;SDS011;36525;49.398;7.614;2023-04-24T17:49:16;7.70;;;3.78;;
50569;SDS011;36525;49.398;7.614;2023-04-24T17:51:43;5.93;;;3.20;;
50569;SDS011;36525;49.398;7.614;2023-04-24T17:54:11;5.68;;;3.63;;
50569;SDS011;36525;49.398;7.614;2023-04-24T17:56:38;5.38;;;3.45;;
50569;SDS011;36525;49.398;7.614;2023-04-24T17:59:09;6.05;;;3.40;;
50569;SDS011;36525;49.398;7.614;2023-04-24T18:01:36;6.80;;;3.20;;
50569;SDS011;36525;49.398;7.614;2023-04-24T18:04:03;5.63;;;3.63;;
50569;SDS011;36525;49.398;7.614;2023-04-24T18:06:31;6.43;;;3.42;;
50569;SDS011;36525;49.398;7.614;2023-04-24T18:08:58;6.28;;;2.97;;
50569;SDS011;36525;49.398;7.614;2023-04-24T18:11:25;5.05;;;2.85;;
50569;SDS011;36525;49.398;7.614;2023-04-24T18:13:53;4.60;;;3.13;;
50569;SDS011;36525;49.398;7.614;2023-04-24T18:16:20;7.28;;;3.65;;
50569;SDS011;36525;49.398;7.614;2023-04-24T18:18:50;6.63;;;3.63;;
50569;SDS011;36525;49.398;7.614;2023-04-24T18:21:19;4.18;;;2.85;;